Hobbsville, North Carolina
Current Conditions -  °F | °C
As of 8:15 PM on Monday 20 Oct 2014 (Local Time) from KEDE Reporting Station
Clear Clear  
Wind Chill: 63°   Ceiling: Unl
Heat Index: 63°   Visibility: 10mi
Dew Point: 55°   Wind: 7mph
Humidity: 75%   Direction: 160°SSE
Pressure: 30.02"   Gusts: NA
Location:  36.35°N, 76.6°W
Report Text: KEDE 210015Z AUTO 16006KT 10SM CLR 17/13 A3002 RMK AO2 T01740130
Loading
Personal Weather Stations






























Interactive Weather Map
Tropical Storm Tracking
New forecast layout! Learn more

10-Day Weather Forecast

Advertisements
Track Severe Weather on mobile